Winnemucca Colony, Nevada
Current Conditions -  °F | °C
As of 1:56 AM on Wednesday 26 Nov 2014 (Local Time) from KWMC Reporting Station
Clear Clear  
Wind Chill: 23°   Ceiling: Unl
Heat Index: 28°   Visibility: 10mi
Dew Point: 25°   Wind: 5mph
Humidity: 88%   Direction: 100°E
Pressure: 30.42"   Gusts: NA
Location:  41.1353°N, 118.186°W
Report Text: KWMC 260956Z AUTO 10004KT 10SM CLR M02/M04 A3042 RMK AO2 SLP303 T10221039
Loading
Personal Weather Stations






























Interactive Weather Map New forecast layout! Learn more

10-Day Weather Forecast

Advertisements
Track Severe Weather on mobile